Time;durP1;ratioP1;P1;durP2;ratioP2;P2;SDS_P1;SDS_P2;PMS_P1;PMS_P2;Temp;Humidity;BMP_temperature;BMP_pressure;BME280_temperature;BME280_humidity;BME280_pressure;Samples;Min_cycle;Max_cycle;Signal;HPM_P1;HPM_P2
2023/08/08 00:01:58;;;;;;;2.70;1.63;;;19.90;99.10;;;;;;5050938;28;20172;-86
2023/08/08 00:04:23;;;;;;;3.73;1.67;;;19.80;99.10;;;;;;5029837;28;20409;-86
2023/08/08 00:06:49;;;;;;;2.87;1.80;;;19.80;99.20;;;;;;5039831;28;20250;-86
2023/08/08 00:09:16;;;;;;;2.90;1.57;;;19.80;99.10;;;;;;5026354;28;20192;-86
2023/08/08 00:11:41;;;;;;;2.47;1.53;;;19.80;99.00;;;;;;5030482;28;20196;-87
2023/08/08 00:14:07;;;;;;;5.00;2.00;;;19.80;99.00;;;;;;5025216;28;20187;-86
2023/08/08 00:16:32;;;;;;;3.30;1.70;;;19.80;99.20;;;;;;5033338;28;20169;-85
2023/08/08 00:18:59;;;;;;;3.37;1.70;;;19.80;99.10;;;;;;5046286;28;20302;-86
2023/08/08 00:21:24;;;;;;;3.57;1.80;;;19.80;99.10;;;;;;5043761;28;20446;-86
2023/08/08 00:23:50;;;;;;;3.17;1.43;;;19.80;99.10;;;;;;5048068;28;20194;-86
2023/08/08 00:26:15;;;;;;;2.80;1.70;;;19.80;99.40;;;;;;5025918;28;20183;-86
2023/08/08 00:28:41;;;;;;;1.83;1.40;;;19.80;99.10;;;;;;5032540;28;20184;-86
2023/08/08 00:31:07;;;;;;;2.33;1.70;;;19.80;99.20;;;;;;5043087;28;20214;-87
2023/08/08 00:33:33;;;;;;;2.50;1.40;;;19.80;98.90;;;;;;5034282;28;20310;-86
2023/08/08 00:35:58;;;;;;;3.10;1.53;;;19.80;99.20;;;;;;5027920;28;20574;-86
2023/08/08 00:38:24;;;;;;;1.97;1.50;;;19.80;99.30;;;;;;5030679;28;20180;-86
2023/08/08 00:40:50;;;;;;;2.23;1.50;;;19.70;99.10;;;;;;5029673;28;20696;-86
2023/08/08 00:43:16;;;;;;;2.63;1.67;;;19.80;99.10;;;;;;5028462;28;20177;-86
2023/08/08 00:45:43;;;;;;;2.03;1.50;;;19.80;99.10;;;;;;5028133;28;20215;-86
2023/08/08 00:48:09;;;;;;;2.77;1.87;;;19.70;98.90;;;;;;5037022;28;20296;-86
2023/08/08 00:50:36;;;;;;;2.87;1.70;;;19.70;99.10;;;;;;5028171;28;20433;-85
2023/08/08 00:53:03;;;;;;;2.43;1.60;;;19.80;99.30;;;;;;5036224;28;20330;-86
2023/08/08 00:55:29;;;;;;;2.13;1.50;;;19.80;99.00;;;;;;5031538;28;20271;-86
2023/08/08 00:57:56;;;;;;;2.47;1.60;;;19.80;99.00;;;;;;5028733;28;20169;-86
2023/08/08 01:00:22;;;;;;;3.03;1.40;;;19.80;99.10;;;;;;5044026;28;20180;-86
2023/08/08 01:02:48;;;;;;;1.77;1.50;;;19.70;99.10;;;;;;5025143;28;20179;-87
2023/08/08 01:05:13;;;;;;;1.83;1.20;;;19.70;99.20;;;;;;5033733;28;20572;-86
2023/08/08 01:07:59;;;;;;;4.97;1.63;;;19.80;99.00;;;;;;5026047;28;20185;-86
2023/08/08 01:10:28;;;;;;;2.33;1.40;;;19.70;99.00;;;;;;5029056;28;20272;-86
2023/08/08 01:13:02;;;;;;;1.77;1.40;;;19.80;99.00;;;;;;5028852;28;20283;-86
2023/08/08 01:15:35;;;;;;;3.27;1.70;;;19.80;99.00;;;;;;5032419;28;20279;-86
2023/08/08 01:18:06;;;;;;;2.43;1.30;;;19.70;98.90;;;;;;5030407;28;20194;-86
2023/08/08 01:20:33;;;;;;;1.97;1.70;;;19.70;99.10;;;;;;5029352;28;20197;-86
2023/08/08 01:23:02;;;;;;;1.53;1.30;;;19.70;98.90;;;;;;5024972;28;20181;-86
2023/08/08 01:25:28;;;;;;;2.10;1.50;;;19.70;98.90;;;;;;5030068;28;20288;-86
2023/08/08 01:27:54;;;;;;;2.23;1.37;;;19.70;99.10;;;;;;5025807;28;20547;-86
2023/08/08 01:30:19;;;;;;;1.50;1.37;;;19.70;98.90;;;;;;5031709;28;20275;-86
2023/08/08 01:32:45;;;;;;;2.80;1.60;;;19.70;99.00;;;;;;5032435;28;20251;-86
2023/08/08 01:35:11;;;;;;;2.00;1.50;;;19.70;99.30;;;;;;5028751;28;20176;-86
2023/08/08 01:37:44;;;;;;;1.60;1.20;;;19.70;99.00;;;;;;5027637;28;20188;-87
2023/08/08 01:40:15;;;;;;;1.33;1.20;;;19.70;99.00;;;;;;5027606;28;20177;-86
2023/08/08 01:42:47;;;;;;;2.20;1.33;;;19.70;98.90;;;;;;5022665;28;20179;-86
2023/08/08 01:45:14;;;;;;;1.53;1.40;;;19.70;98.40;;;;;;5044233;28;20187;-86
2023/08/08 01:47:41;;;;;;;1.83;1.30;;;19.70;98.80;;;;;;5046557;28;20180;-86
2023/08/08 01:50:08;;;;;;;2.03;1.40;;;19.70;99.00;;;;;;5043921;28;20199;-86
2023/08/08 01:52:35;;;;;;;1.60;1.40;;;19.70;98.70;;;;;;5042239;28;20487;-86
2023/08/08 01:55:01;;;;;;;1.57;1.17;;;19.60;98.90;;;;;;5025018;28;20169;-86
2023/08/08 01:57:26;;;;;;;2.10;1.50;;;19.60;99.10;;;;;;5043446;28;20173;-86
2023/08/08 01:59:52;;;;;;;1.20;1.10;;;19.70;98.90;;;;;;5042491;28;20172;-86
2023/08/08 02:02:18;;;;;;;1.50;1.23;;;19.60;99.00;;;;;;5032858;28;20267;-86
2023/08/08 02:04:44;;;;;;;1.70;1.30;;;19.60;99.10;;;;;;5026409;28;20188;-86
2023/08/08 02:07:09;;;;;;;3.20;1.40;;;19.60;99.10;;;;;;5050622;28;20184;-87
2023/08/08 02:09:35;;;;;;;2.70;1.40;;;19.60;99.00;;;;;;5046109;28;20180;-86
2023/08/08 02:12:01;;;;;;;2.43;1.53;;;19.60;99.10;;;;;;5033656;28;20204;-86
2023/08/08 02:14:27;;;;;;;2.33;1.40;;;19.60;99.00;;;;;;5030467;28;20216;-86
2023/08/08 02:16:52;;;;;;;2.10;1.40;;;19.60;99.10;;;;;;5033331;28;20177;-86
2023/08/08 02:19:18;;;;;;;1.70;1.20;;;19.60;99.10;;;;;;5038152;28;20185;-86
2023/08/08 02:21:44;;;;;;;3.97;1.50;;;19.60;98.90;;;;;;5033842;28;20195;-86
2023/08/08 02:24:09;;;;;;;1.63;1.40;;;19.60;99.00;;;;;;5031343;28;20797;-87
2023/08/08 02:26:35;;;;;;;1.63;1.20;;;19.60;99.00;;;;;;5036104;28;20208;-87
2023/08/08 02:29:01;;;;;;;1.57;1.17;;;19.60;98.90;;;;;;5031745;28;20259;-86
2023/08/08 02:31:27;;;;;;;2.00;1.40;;;19.60;99.00;;;;;;5032303;28;20350;-86
2023/08/08 02:33:52;;;;;;;1.33;1.23;;;19.60;99.00;;;;;;5029642;28;20177;-86
2023/08/08 02:36:18;;;;;;;1.83;1.20;;;19.60;98.90;;;;;;5033844;28;20237;-86
2023/08/08 02:38:45;;;;;;;2.20;1.20;;;19.60;99.00;;;;;;5034873;28;20180;-86
2023/08/08 02:41:10;;;;;;;2.20;1.50;;;19.60;98.80;;;;;;5030344;28;20180;-86
2023/08/08 02:43:36;;;;;;;3.47;1.40;;;19.60;99.10;;;;;;5034295;28;20176;-86
2023/08/08 02:46:02;;;;;;;1.50;1.40;;;19.60;99.10;;;;;;5030383;28;20176;-86
2023/08/08 02:48:29;;;;;;;3.20;1.40;;;19.50;98.90;;;;;;5033762;28;20173;-86
2023/08/08 02:50:55;;;;;;;1.47;1.30;;;19.60;99.10;;;;;;5029252;28;20212;-86
2023/08/08 02:53:21;;;;;;;1.90;1.40;;;19.60;99.00;;;;;;5037493;28;20172;-86
2023/08/08 02:55:47;;;;;;;2.70;1.40;;;19.60;99.00;;;;;;5028711;28;20192;-86
2023/08/08 02:58:13;;;;;;;2.50;1.37;;;19.50;99.10;;;;;;5049310;28;20177;-86
2023/08/08 03:00:38;;;;;;;2.37;1.27;;;19.60;99.00;;;;;;5039138;28;20172;-86
2023/08/08 03:03:05;;;;;;;2.67;1.40;;;19.60;99.00;;;;;;5045045;28;20181;-86
2023/08/08 03:05:31;;;;;;;2.43;1.30;;;19.50;99.10;;;;;;5048718;28;20177;-86
2023/08/08 03:07:57;;;;;;;1.80;1.23;;;19.50;99.00;;;;;;5052341;28;20176;-86
2023/08/08 03:10:22;;;;;;;1.93;1.37;;;19.50;99.10;;;;;;5034287;28;20524;-86
2023/08/08 03:12:48;;;;;;;1.73;1.37;;;19.50;98.80;;;;;;5030041;28;20404;-86
2023/08/08 03:15:14;;;;;;;1.37;1.27;;;19.50;99.10;;;;;;5030922;28;20180;-86
2023/08/08 03:17:40;;;;;;;1.57;1.30;;;19.50;98.80;;;;;;5029337;28;20176;-86
2023/08/08 03:20:06;;;;;;;1.67;1.50;;;19.50;99.00;;;;;;5030114;28;20177;-86
2023/08/08 03:22:33;;;;;;;2.00;1.37;;;19.50;98.80;;;;;;5030837;28;20332;-86
2023/08/08 03:24:58;;;;;;;2.47;1.50;;;19.50;99.00;;;;;;5030832;28;20294;-86
2023/08/08 03:27:25;;;;;;;2.67;1.37;;;19.50;99.10;;;;;;5042707;28;20292;-86
2023/08/08 03:29:51;;;;;;;1.43;1.30;;;19.50;99.10;;;;;;5029178;28;20246;-87
2023/08/08 03:32:17;;;;;;;1.47;1.20;;;19.50;98.90;;;;;;5026882;28;20590;-86
2023/08/08 03:34:42;;;;;;;2.03;1.53;;;19.50;99.10;;;;;;5031405;28;20179;-86
2023/08/08 03:37:08;;;;;;;2.33;1.40;;;19.50;99.10;;;;;;5023970;28;20184;-87
2023/08/08 03:39:34;;;;;;;2.10;1.67;;;19.50;99.10;;;;;;5032561;28;20208;-87
2023/08/08 03:42:00;;;;;;;2.43;1.40;;;19.50;99.10;;;;;;5031509;28;20574;-86
2023/08/08 03:44:25;;;;;;;1.93;1.47;;;19.50;99.00;;;;;;5030372;28;20460;-87
2023/08/08 03:46:51;;;;;;;2.90;1.40;;;19.50;99.10;;;;;;5027986;28;20185;-86
2023/08/08 03:49:17;;;;;;;1.57;1.10;;;19.50;99.20;;;;;;5046009;28;20176;-85
2023/08/08 03:51:43;;;;;;;2.17;1.33;;;19.50;99.10;;;;;;5030895;28;20223;-86
2023/08/08 03:54:08;;;;;;;1.93;1.40;;;19.50;99.20;;;;;;5033961;28;20168;-85
2023/08/08 03:56:34;;;;;;;2.57;1.47;;;19.50;99.20;;;;;;5025935;28;20346;-85
2023/08/08 03:59:00;;;;;;;1.80;1.43;;;19.50;99.30;;;;;;5028741;28;20184;-85
2023/08/08 04:01:26;;;;;;;2.00;1.30;;;19.50;99.30;;;;;;5043677;28;20211;-86
2023/08/08 04:03:51;;;;;;;2.97;1.60;;;19.50;99.40;;;;;;5025914;28;20578;-86
2023/08/08 04:06:17;;;;;;;2.37;1.73;;;19.50;99.40;;;;;;5028556;28;20287;-86
2023/08/08 04:08:42;;;;;;;2.67;1.60;;;19.50;99.40;;;;;;5026211;28;20193;-86
2023/08/08 04:11:08;;;;;;;3.90;1.47;;;19.40;99.40;;;;;;5046028;28;20211;-86
2023/08/08 04:13:34;;;;;;;2.23;1.50;;;19.50;99.50;;;;;;5023957;28;20491;-86
2023/08/08 04:16:01;;;;;;;2.50;1.67;;;19.50;99.50;;;;;;5044823;28;20177;-86
2023/08/08 04:18:27;;;;;;;2.30;1.60;;;19.40;99.60;;;;;;5029587;28;20603;-85
2023/08/08 04:20:52;;;;;;;3.83;1.77;;;19.40;99.50;;;;;;5032220;28;20180;-86
2023/08/08 04:23:18;;;;;;;3.83;1.70;;;19.40;99.70;;;;;;5043656;28;20506;-86
2023/08/08 04:25:44;;;;;;;2.47;1.63;;;19.40;99.60;;;;;;5024722;28;20203;-86
2023/08/08 04:28:10;;;;;;;3.00;1.70;;;19.40;99.60;;;;;;5024948;28;20180;-86
2023/08/08 04:30:36;;;;;;;1.77;1.40;;;19.40;99.60;;;;;;5030479;28;20185;-86
2023/08/08 04:33:01;;;;;;;2.10;1.70;;;19.40;99.60;;;;;;5028367;28;20452;-86
2023/08/08 04:35:27;;;;;;;2.77;1.70;;;19.40;99.60;;;;;;4994055;28;20176;-85
2023/08/08 04:37:53;;;;;;;3.40;1.50;;;19.40;99.70;;;;;;5029094;28;20187;-86
2023/08/08 04:40:18;;;;;;;2.17;1.37;;;19.40;99.60;;;;;;5027189;28;20188;-86
2023/08/08 04:42:44;;;;;;;4.07;2.00;;;19.40;99.70;;;;;;5027512;28;20180;-86
2023/08/08 04:45:10;;;;;;;3.13;1.60;;;19.40;99.70;;;;;;5025882;28;20247;-85
2023/08/08 04:47:35;;;;;;;3.50;1.70;;;19.30;99.80;;;;;;5025821;28;20195;-85
2023/08/08 04:50:01;;;;;;;3.03;1.70;;;19.30;99.90;;;;;;5042609;28;20191;-85
2023/08/08 04:52:27;;;;;;;4.00;1.57;;;19.40;99.90;;;;;;5027514;28;20200;-85
2023/08/08 04:54:53;;;;;;;3.10;1.60;;;19.30;99.90;;;;;;5025188;28;20192;-85
2023/08/08 04:57:19;;;;;;;1.50;1.27;;;19.30;99.90;;;;;;5024979;28;20184;-85
2023/08/08 04:59:44;;;;;;;2.70;1.60;;;19.30;99.90;;;;;;5028798;28;20283;-85
2023/08/08 05:02:10;;;;;;;2.33;1.50;;;19.30;99.90;;;;;;5042160;28;20189;-86
2023/08/08 05:04:36;;;;;;;4.37;1.70;;;19.30;99.90;;;;;;5027855;28;20184;-86
2023/08/08 05:07:02;;;;;;;2.80;1.43;;;19.30;99.90;;;;;;5020001;28;20341;-86
2023/08/08 05:09:27;;;;;;;3.97;1.97;;;19.40;99.90;;;;;;5019271;28;20181;-86
2023/08/08 05:11:53;;;;;;;4.63;1.60;;;19.30;99.90;;;;;;5022384;28;20277;-86
2023/08/08 05:14:19;;;;;;;3.23;1.60;;;19.40;99.90;;;;;;5038748;28;20731;-86
2023/08/08 05:16:46;;;;;;;4.00;1.90;;;19.40;99.90;;;;;;5035573;28;20177;-86
2023/08/08 05:19:12;;;;;;;4.07;1.60;;;19.40;99.90;;;;;;5018544;28;20505;-85
2023/08/08 05:21:37;;;;;;;3.53;1.70;;;19.40;99.90;;;;;;5021153;28;20581;-86
2023/08/08 05:24:04;;;;;;;5.57;1.80;;;19.50;99.90;;;;;;5020923;28;20200;-87
2023/08/08 05:26:29;;;;;;;4.73;1.60;;;19.50;99.90;;;;;;5018405;28;20286;-86
2023/08/08 05:28:55;;;;;;;3.60;2.00;;;19.50;99.90;;;;;;5020418;28;20274;-86
2023/08/08 05:31:21;;;;;;;6.60;1.70;;;19.50;99.90;;;;;;5016300;28;20265;-86
2023/08/08 05:33:49;;;;;;;3.90;1.70;;;19.50;99.90;;;;;;5015359;28;20213;-86
2023/08/08 05:36:14;;;;;;;4.37;1.80;;;19.50;99.90;;;;;;5015208;28;20180;-87
2023/08/08 05:38:41;;;;;;;2.40;1.73;;;19.50;99.90;;;;;;5019436;28;20180;-86
2023/08/08 05:41:07;;;;;;;3.40;2.00;;;19.50;99.90;;;;;;5019664;28;20184;-86
2023/08/08 05:43:33;;;;;;;7.23;1.80;;;19.60;99.90;;;;;;5022779;28;20483;-86
2023/08/08 05:45:59;;;;;;;2.63;1.70;;;19.60;99.90;;;;;;5020650;28;20379;-86
2023/08/08 05:48:25;;;;;;;3.87;1.77;;;19.60;99.90;;;;;;5022114;28;20437;-86
2023/08/08 05:50:51;;;;;;;2.77;2.00;;;19.60;99.90;;;;;;5019634;28;20188;-86
2023/08/08 05:53:17;;;;;;;2.77;2.00;;;19.60;99.90;;;;;;5018959;28;20180;-86
2023/08/08 05:55:42;;;;;;;3.07;1.97;;;19.60;99.90;;;;;;5019865;28;20625;-86
2023/08/08 05:58:08;;;;;;;4.30;2.00;;;19.60;99.90;;;;;;5022205;28;20176;-86
2023/08/08 06:00:34;;;;;;;3.73;2.20;;;19.60;99.90;;;;;;5018995;28;20181;-86
2023/08/08 06:03:01;;;;;;;4.50;2.20;;;19.60;99.90;;;;;;5016570;28;20180;-85
2023/08/08 06:05:26;;;;;;;5.83;1.90;;;19.60;99.90;;;;;;5020212;28;20246;-86
2023/08/08 06:07:52;;;;;;;2.87;1.80;;;19.60;99.90;;;;;;5018279;28;20531;-86
2023/08/08 06:10:17;;;;;;;3.00;2.17;;;19.60;99.90;;;;;;5020506;28;20193;-86
2023/08/08 06:12:43;;;;;;;3.43;2.10;;;19.60;99.90;;;;;;5022280;28;20215;-87
2023/08/08 06:15:09;;;;;;;5.33;2.00;;;19.60;99.90;;;;;;5021186;28;20185;-86
2023/08/08 06:17:35;;;;;;;7.43;2.20;;;19.60;99.90;;;;;;5027747;28;20495;-86
2023/08/08 06:20:01;;;;;;;4.07;2.17;;;19.60;99.90;;;;;;5020436;28;20193;-86
2023/08/08 06:22:26;;;;;;;4.43;2.20;;;19.60;99.90;;;;;;5022638;28;20215;-85
2023/08/08 06:24:52;;;;;;;3.57;2.10;;;19.60;99.90;;;;;;5038192;28;20295;-86
2023/08/08 06:27:18;;;;;;;6.33;2.50;;;19.60;99.90;;;;;;5021080;28;20203;-86
2023/08/08 06:29:44;;;;;;;4.17;2.47;;;19.60;99.90;;;;;;5020610;28;20189;-86
2023/08/08 06:32:09;;;;;;;4.07;2.30;;;19.60;99.90;;;;;;5020332;28;20227;-85
2023/08/08 06:34:35;;;;;;;4.80;2.57;;;19.60;99.90;;;;;;5021217;28;20177;-85
2023/08/08 06:37:01;;;;;;;2.87;2.43;;;19.60;99.90;;;;;;5023345;28;20180;-85
2023/08/08 06:39:26;;;;;;;5.97;2.23;;;19.60;99.90;;;;;;5019663;28;20585;-86
2023/08/08 06:41:52;;;;;;;4.13;2.57;;;19.60;99.90;;;;;;5019119;28;20192;-86
2023/08/08 06:44:18;;;;;;;7.03;2.60;;;19.60;99.90;;;;;;5020649;28;20195;-86
2023/08/08 06:46:44;;;;;;;3.37;2.10;;;19.60;99.90;;;;;;5017236;28;20185;-86
2023/08/08 06:49:09;;;;;;;3.67;2.13;;;19.70;99.90;;;;;;5021076;28;20239;-86
2023/08/08 06:51:36;;;;;;;3.37;2.30;;;19.60;99.90;;;;;;5022054;28;20415;-86
2023/08/08 06:54:01;;;;;;;5.63;2.60;;;19.60;99.90;;;;;;5022168;28;20681;-86
2023/08/08 06:56:27;;;;;;;4.40;2.67;;;19.60;99.90;;;;;;5017352;28;20267;-86
2023/08/08 06:58:53;;;;;;;6.97;2.80;;;19.60;99.90;;;;;;5036145;28;20206;-86
2023/08/08 07:01:19;;;;;;;5.73;2.90;;;19.70;99.90;;;;;;5018851;28;20295;-86
2023/08/08 07:03:46;;;;;;;5.87;2.87;;;19.70;99.90;;;;;;5019616;28;20190;-86
2023/08/08 07:06:12;;;;;;;5.27;3.07;;;19.70;99.90;;;;;;5016873;28;20198;-85
2023/08/08 07:08:40;;;;;;;5.03;2.73;;;19.70;99.90;;;;;;5018168;28;20192;-86
2023/08/08 07:11:06;;;;;;;5.27;2.93;;;19.60;99.90;;;;;;5019224;28;20594;-86
2023/08/08 07:13:32;;;;;;;5.90;3.53;;;19.70;99.90;;;;;;5016520;28;20181;-86
2023/08/08 07:15:58;;;;;;;7.07;2.80;;;19.70;99.90;;;;;;5019662;28;20188;-86
2023/08/08 07:18:24;;;;;;;4.93;2.90;;;19.70;99.90;;;;;;5018241;28;20472;-86
2023/08/08 07:20:50;;;;;;;4.37;2.80;;;19.70;99.90;;;;;;5021393;28;20207;-86
2023/08/08 07:23:16;;;;;;;7.63;3.20;;;19.70;99.90;;;;;;5040466;28;20496;-86
2023/08/08 07:25:42;;;;;;;4.20;2.70;;;19.70;99.90;;;;;;5017690;28;20201;-86
2023/08/08 07:28:08;;;;;;;4.07;2.77;;;19.80;99.90;;;;;;5020527;28;20211;-86
2023/08/08 07:30:35;;;;;;;5.37;3.40;;;19.70;99.90;;;;;;5018750;28;20217;-86
2023/08/08 07:33:01;;;;;;;6.30;3.17;;;19.80;99.90;;;;;;5037105;28;20300;-86
2023/08/08 07:35:27;;;;;;;5.83;3.07;;;19.80;99.90;;;;;;5034030;28;20506;-86
2023/08/08 07:37:53;;;;;;;5.40;2.77;;;19.80;99.90;;;;;;5020806;28;20427;-86
2023/08/08 07:40:21;;;;;;;5.23;3.37;;;19.90;99.90;;;;;;5017622;28;20235;-86
2023/08/08 07:42:48;;;;;;;4.90;3.30;;;19.90;99.90;;;;;;5036488;28;20620;-86
2023/08/08 07:45:14;;;;;;;4.67;2.87;;;20.00;99.90;;;;;;5021460;28;20307;-86
2023/08/08 07:47:39;;;;;;;5.90;2.97;;;19.90;99.90;;;;;;5017876;28;20242;-86
2023/08/08 07:50:08;;;;;;;7.67;3.27;;;20.00;99.90;;;;;;5020893;28;20186;-86
2023/08/08 07:52:34;;;;;;;4.53;3.50;;;20.00;99.90;;;;;;5017594;28;20215;-86
2023/08/08 07:55:03;;;;;;;5.93;3.57;;;20.00;99.90;;;;;;5020071;28;20184;-86
2023/08/08 07:57:30;;;;;;;5.67;3.50;;;20.00;99.90;;;;;;5016848;28;20199;-86
2023/08/08 07:59:56;;;;;;;5.60;3.47;;;20.10;99.90;;;;;;5035581;28;20172;-86
2023/08/08 08:02:21;;;;;;;6.30;3.10;;;20.20;99.90;;;;;;5018898;28;20572;-86
2023/08/08 08:04:47;;;;;;;5.07;3.47;;;20.30;99.90;;;;;;5020524;28;20215;-87
2023/08/08 08:07:13;;;;;;;4.07;2.83;;;20.30;99.70;;;;;;5022773;28;20195;-87
2023/08/08 08:09:42;;;;;;;6.40;3.10;;;20.40;99.60;;;;;;5023938;28;20251;-87
2023/08/08 08:12:08;;;;;;;5.17;2.70;;;20.50;99.20;;;;;;5019645;28;20372;-86
2023/08/08 08:14:34;;;;;;;4.90;2.83;;;20.70;98.90;;;;;;5017036;28;20270;-86
2023/08/08 08:17:00;;;;;;;5.33;3.13;;;20.70;98.70;;;;;;5014911;28;20236;-86
2023/08/08 08:19:26;;;;;;;5.00;3.00;;;20.90;98.10;;;;;;5019493;28;20249;-87
2023/08/08 08:21:51;;;;;;;5.47;2.93;;;21.30;97.20;;;;;;5034616;28;20193;-87
2023/08/08 08:24:17;;;;;;;5.53;3.03;;;21.50;96.60;;;;;;5015823;28;20192;-87
2023/08/08 08:26:43;;;;;;;4.20;2.97;;;21.80;95.90;;;;;;5015379;28;20224;-87
2023/08/08 08:29:08;;;;;;;3.90;2.90;;;21.90;95.50;;;;;;5013552;28;20284;-87
2023/08/08 08:31:37;;;;;;;4.00;2.77;;;21.70;95.70;;;;;;5032326;28;20294;-87
2023/08/08 08:34:03;;;;;;;4.50;2.90;;;21.70;96.20;;;;;;5017624;28;20180;-87
2023/08/08 08:36:29;;;;;;;4.57;2.87;;;21.50;96.60;;;;;;5017432;28;20180;-87
2023/08/08 08:38:54;;;;;;;6.30;2.80;;;21.50;96.40;;;;;;5016005;28;20184;-86
2023/08/08 08:41:26;;;;;;;5.67;3.20;;;21.50;96.50;;;;;;5035323;28;20176;-87
2023/08/08 08:43:53;;;;;;;4.23;3.10;;;21.70;95.90;;;;;;5018913;28;20463;-87
2023/08/08 08:46:21;;;;;;;5.00;2.67;;;21.90;95.50;;;;;;5038154;28;20267;-88
2023/08/08 08:48:49;;;;;;;5.77;2.80;;;22.00;95.10;;;;;;5020896;28;20325;-87
2023/08/08 08:51:16;;;;;;;4.50;2.67;;;21.90;95.30;;;;;;5020302;28;20302;-88
2023/08/08 08:53:43;;;;;;;3.67;2.63;;;21.70;95.60;;;;;;5020841;28;20184;-88
2023/08/08 08:56:09;;;;;;;5.10;2.80;;;21.70;95.70;;;;;;5036617;28;20169;-87
2023/08/08 08:58:34;;;;;;;6.17;2.97;;;21.80;95.60;;;;;;5025320;28;20676;-87
2023/08/08 09:01:02;;;;;;;4.30;2.80;;;21.70;95.70;;;;;;5013338;28;20544;-87
2023/08/08 09:03:27;;;;;;;4.50;2.80;;;21.70;95.90;;;;;;5034899;28;20448;-88
2023/08/08 09:05:54;;;;;;;4.47;2.60;;;21.80;95.80;;;;;;5020030;28;20189;-86
2023/08/08 09:08:20;;;;;;;3.40;2.40;;;21.70;96.00;;;;;;5034741;28;20211;-88
2023/08/08 09:10:46;;;;;;;4.97;2.83;;;21.80;95.90;;;;;;5017485;28;20231;-87
2023/08/08 09:13:11;;;;;;;4.30;2.47;;;21.80;96.00;;;;;;5018416;28;20184;-87
2023/08/08 09:15:37;;;;;;;3.22;2.47;;;21.90;95.80;;;;;;5015240;28;20184;-87
2023/08/08 09:18:03;;;;;;;6.97;2.63;;;21.90;95.80;;;;;;5016856;28;20187;-87
2023/08/08 09:20:29;;;;;;;3.75;2.50;;;21.90;95.90;;;;;;5013808;28;20280;-87
2023/08/08 09:22:56;;;;;;;5.35;2.78;;;21.90;95.80;;;;;;5032636;28;20184;-87
2023/08/08 09:25:21;;;;;;;4.30;2.38;;;21.80;95.90;;;;;;5035130;28;20197;-87
2023/08/08 09:27:47;;;;;;;2.70;2.17;;;21.90;95.90;;;;;;5034547;28;20398;-87
2023/08/08 09:30:14;;;;;;;4.68;2.47;;;21.90;95.70;;;;;;5019804;28;20253;-87
2023/08/08 09:32:42;;;;;;;3.90;2.38;;;22.00;95.40;;;;;;5020588;28;20479;-88
2023/08/08 09:35:09;;;;;;;3.72;2.10;;;22.00;95.40;;;;;;5018947;28;20333;-88
2023/08/08 09:37:35;;;;;;;3.27;2.20;;;22.00;95.50;;;;;;5014613;28;20212;-88
2023/08/08 09:40:05;;;;;;;3.37;2.10;;;22.00;95.30;;;;;;5017923;28;20218;-88
2023/08/08 09:42:31;;;;;;;2.87;2.07;;;22.20;95.00;;;;;;5016480;28;20241;-88
2023/08/08 09:44:57;;;;;;;3.70;1.97;;;22.10;95.20;;;;;;5012360;28;20204;-88
2023/08/08 09:47:24;;;;;;;5.17;2.20;;;22.10;94.90;;;;;;5017815;28;20233;-88
2023/08/08 09:49:50;;;;;;;6.03;2.20;;;22.10;95.10;;;;;;5017847;28;20337;-88
2023/08/08 09:52:16;;;;;;;5.47;2.23;;;22.10;95.00;;;;;;5022423;28;20490;-87
2023/08/08 09:54:46;;;;;;;3.47;2.10;;;22.20;95.00;;;;;;5015753;28;20338;-86
2023/08/08 09:57:13;;;;;;;5.10;2.40;;;22.20;94.70;;;;;;5017313;28;20429;-86
2023/08/08 09:59:39;;;;;;;5.30;2.43;;;22.20;94.50;;;;;;5016616;28;20461;-87
2023/08/08 10:02:09;;;;;;;3.03;1.90;;;22.30;94.60;;;;;;5015926;28;20344;-87
2023/08/08 10:04:35;;;;;;;4.30;2.30;;;22.30;94.30;;;;;;5019711;28;20207;-88
2023/08/08 10:07:01;;;;;;;3.47;2.20;;;22.40;94.30;;;;;;5016126;28;20366;-88
2023/08/08 10:09:27;;;;;;;4.10;2.00;;;22.30;94.30;;;;;;5019412;28;20453;-87
2023/08/08 10:11:55;;;;;;;4.30;2.10;;;22.20;94.70;;;;;;5014839;28;20208;-87
2023/08/08 10:14:29;;;;;;;4.40;2.13;;;22.20;94.60;;;;;;5018813;28;20237;-89
2023/08/08 10:16:56;;;;;;;3.67;2.00;;;22.30;94.30;;;;;;5017727;28;20271;-88
2023/08/08 10:19:23;;;;;;;5.63;2.00;;;22.20;94.40;;;;;;5016660;28;20184;-88
2023/08/08 10:21:48;;;;;;;3.03;2.00;;;22.20;94.50;;;;;;5017617;28;20245;-88
2023/08/08 10:24:20;;;;;;;4.77;2.07;;;22.20;94.50;;;;;;5030435;28;20185;-87
2023/08/08 10:26:53;;;;;;;3.97;2.03;;;22.30;94.30;;;;;;5020010;28;20200;-87
2023/08/08 10:29:20;;;;;;;4.10;1.90;;;22.30;94.40;;;;;;5039175;28;20552;-88
2023/08/08 10:31:53;;;;;;;4.47;1.97;;;22.40;94.10;;;;;;5018473;28;20602;-87
2023/08/08 10:34:20;;;;;;;6.83;2.13;;;22.40;94.00;;;;;;5018226;28;20325;-88
2023/08/08 10:36:52;;;;;;;3.93;2.00;;;22.40;93.90;;;;;;5022842;28;20448;-88
2023/08/08 10:39:21;;;;;;;4.30;1.83;;;22.50;93.60;;;;;;5023238;28;20207;-90
2023/08/08 10:41:50;;;;;;;2.93;1.80;;;22.50;93.60;;;;;;5023156;28;20466;-87
2023/08/08 10:44:24;;;;;;;4.57;1.97;;;22.60;93.40;;;;;;5017394;28;20180;-89
2023/08/08 10:46:52;;;;;;;4.83;1.90;;;22.50;93.30;;;;;;5018275;28;20185;-89
2023/08/08 10:49:18;;;;;;;2.57;1.60;;;22.60;93.40;;;;;;5026982;28;20702;-89
2023/08/08 10:51:46;;;;;;;4.17;1.87;;;22.60;93.20;;;;;;5021906;28;20273;-89
2023/08/08 10:54:15;;;;;;;3.37;2.30;;;22.60;93.20;;;;;;5039590;28;20168;-87
2023/08/08 10:56:48;;;;;;;3.07;1.90;;;22.60;93.20;;;;;;5021828;28;20630;-87
2023/08/08 10:59:24;;;;;;;2.70;1.70;;;22.60;93.40;;;;;;5042717;28;20199;-87
2023/08/08 11:01:52;;;;;;;2.27;1.70;;;22.50;93.50;;;;;;5018479;28;20271;-87
2023/08/08 11:04:24;;;;;;;9.57;2.20;;;22.50;93.30;;;;;;5018473;28;20336;-87
2023/08/08 11:06:52;;;;;;;4.73;2.13;;;22.10;94.10;;;;;;5027214;28;20187;-86
2023/08/08 11:09:18;;;;;;;6.40;2.17;;;21.90;94.50;;;;;;5020547;28;20192;-86
2023/08/08 11:11:44;;;;;;;5.30;1.90;;;21.70;94.80;;;;;;5016900;28;20203;-88
2023/08/08 11:14:16;;;;;;;6.77;2.23;;;21.50;95.10;;;;;;5020043;28;20253;-88
2023/08/08 11:16:43;;;;;;;5.77;2.17;;;21.40;95.60;;;;;;5022896;28;20327;-86
2023/08/08 11:19:10;;;;;;;5.00;2.10;;;21.30;95.80;;;;;;5017882;28;20188;-87
2023/08/08 11:21:38;;;;;;;5.67;1.83;;;21.20;95.90;;;;;;5019722;28;20176;-86
2023/08/08 11:24:06;;;;;;;4.77;1.93;;;21.20;95.80;;;;;;5019550;28;20181;-87
2023/08/08 11:26:34;;;;;;;4.03;2.10;;;21.20;96.00;;;;;;5019083;28;20236;-87
2023/08/08 11:29:01;;;;;;;3.20;1.83;;;21.20;95.70;;;;;;5020808;28;20208;-87
2023/08/08 11:31:28;;;;;;;4.33;2.03;;;21.30;95.50;;;;;;5016802;28;20386;-86
2023/08/08 11:33:55;;;;;;;5.50;2.00;;;21.30;95.30;;;;;;5019763;28;20264;-87
2023/08/08 11:36:22;;;;;;;4.33;1.97;;;21.20;95.30;;;;;;5018949;28;20462;-86
2023/08/08 11:38:50;;;;;;;4.67;2.00;;;21.20;95.20;;;;;;5015320;28;20454;-86
2023/08/08 11:41:17;;;;;;;4.50;2.13;;;21.10;95.60;;;;;;5013010;28;20189;-87
2023/08/08 11:43:44;;;;;;;5.33;2.23;;;21.10;95.50;;;;;;5011783;28;20192;-87
2023/08/08 11:46:12;;;;;;;3.13;2.07;;;21.00;95.60;;;;;;5019549;28;20546;-85
2023/08/08 11:48:38;;;;;;;4.60;2.07;;;21.00;95.60;;;;;;5013524;28;20180;-85
2023/08/08 11:51:04;;;;;;;3.00;1.70;;;21.00;95.60;;;;;;5015234;28;20192;-85
2023/08/08 11:53:30;;;;;;;3.50;1.93;;;21.00;95.50;;;;;;5017856;28;20176;-85
2023/08/08 11:55:58;;;;;;;6.23;2.40;;;21.00;95.40;;;;;;5022877;28;20207;-86
2023/08/08 11:58:28;;;;;;;3.17;2.10;;;21.10;95.50;;;;;;5018359;28;20184;-85
2023/08/08 12:00:54;;;;;;;2.83;1.90;;;21.20;95.20;;;;;;5018578;28;20300;-86
2023/08/08 12:03:20;;;;;;;3.67;2.10;;;21.20;95.00;;;;;;5016914;28;20188;-86
2023/08/08 12:05:47;;;;;;;4.20;2.10;;;21.30;95.10;;;;;;5018632;28;20420;-85
2023/08/08 12:08:21;;;;;;;4.73;1.90;;;21.20;95.10;;;;;;5016664;28;20193;-86
2023/08/08 12:10:55;;;;;;;6.30;2.10;;;21.20;95.20;;;;;;5016217;28;20188;-86
2023/08/08 12:13:22;;;;;;;4.40;2.10;;;21.30;95.30;;;;;;5018793;28;20361;-86
2023/08/08 12:15:48;;;;;;;3.73;2.10;;;21.40;95.20;;;;;;5015750;28;20183;-86
2023/08/08 12:18:19;;;;;;;3.53;1.87;;;21.40;95.30;;;;;;5012551;28;20542;-86
2023/08/08 12:20:45;;;;;;;4.53;1.90;;;21.40;95.30;;;;;;5016557;28;20716;-86
2023/08/08 12:23:12;;;;;;;4.13;1.80;;;21.30;95.40;;;;;;5015411;28;20254;-86
2023/08/08 12:25:38;;;;;;;4.97;1.87;;;21.30;95.50;;;;;;5020233;28;20235;-86
2023/08/08 12:28:04;;;;;;;3.93;1.90;;;21.30;95.60;;;;;;5015394;28;20283;-86
2023/08/08 12:30:30;;;;;;;4.07;1.90;;;21.30;95.80;;;;;;5033977;28;20195;-86
2023/08/08 12:32:56;;;;;;;5.30;2.20;;;21.30;95.80;;;;;;5017347;28;20216;-86
2023/08/08 12:35:21;;;;;;;3.57;1.80;;;21.40;95.80;;;;;;5015115;28;20255;-86
2023/08/08 12:37:47;;;;;;;3.40;1.90;;;21.40;95.90;;;;;;5015604;28;20188;-86
2023/08/08 12:40:13;;;;;;;4.63;2.00;;;21.30;95.90;;;;;;5013873;28;20199;-85
2023/08/08 12:42:39;;;;;;;4.47;2.00;;;21.30;95.80;;;;;;5012036;28;20185;-85
2023/08/08 12:45:06;;;;;;;2.53;1.80;;;21.30;96.00;;;;;;5015614;28;20275;-86